Time;durP1;ratioP1;P1;durP2;ratioP2;P2;SDS_P1;SDS_P2;PMS_P1;PMS_P2;Temp;Humidity;BMP_temperature;BMP_pressure;BME280_temperature;BME280_humidity;BME280_pressure;Samples;Min_cycle;Max_cycle;Signal;HPM_P1;HPM_P2
2023/04/12 00:00:54;;;;;;;7.55;2.00;;;;;;;;;;4710946;30;20515;-66
2023/04/12 00:03:49;;;;;;;6.03;1.42;;;;;;;;;;4705279;30;20053;-66
2023/04/12 00:06:31;;;;;;;6.75;1.80;;;;;;;;;;4712741;30;20095;-66
2023/04/12 00:09:04;;;;;;;5.32;1.60;;;;;;;;;;4712886;30;20076;-66
2023/04/12 00:12:20;;;;;;;6.28;1.42;;;;;;;;;;4738688;30;20122;-66
2023/04/12 00:14:52;;;;;;;9.23;2.05;;;;;;;;;;4730384;30;20076;-66
2023/04/12 00:17:26;;;;;;;8.48;2.33;;;;;;;;;;4718360;30;20065;-66
2023/04/12 00:20:28;;;;;;;8.65;1.92;;;;;;;;;;4723377;30;20061;-67
2023/04/12 00:23:08;;;;;;;9.65;1.90;;;;;;;;;;4725334;30;20057;-66
2023/04/12 00:25:47;;;;;;;8.85;2.33;;;;;;;;;;4776538;30;20066;-66
2023/04/12 00:28:41;;;;;;;;;;;;;;;;;;4783827;30;20075;-66
2023/04/12 00:31:33;;;;;;;7.88;2.35;;;;;;;;;;4732334;30;19937;-66
2023/04/12 00:34:06;;;;;;;11.35;3.03;;;;;;;;;;4686099;30;20076;-66
2023/04/12 00:36:39;;;;;;;13.35;2.53;;;;;;;;;;4664324;30;20070;-66
2023/04/12 00:39:32;;;;;;;5.32;1.80;;;;;;;;;;4662783;30;20066;-66
2023/04/12 00:42:06;;;;;;;7.88;2.50;;;;;;;;;;4620380;30;20078;-66
2023/04/12 00:44:36;;;;;;;7.47;2.22;;;;;;;;;;4632490;30;20070;-66
2023/04/12 00:47:31;;;;;;;6.25;1.80;;;;;;;;;;4613266;31;20442;-65
2023/04/12 00:50:08;;;;;;;4.65;1.98;;;;;;;;;;4626417;31;20139;-66
2023/04/12 00:52:40;;;;;;;11.65;2.25;;;;;;;;;;4627818;30;20063;-65
2023/04/12 00:55:32;;;;;;;8.18;1.80;;;;;;;;;;4647158;30;20084;-65
2023/04/12 00:58:04;;;;;;;9.93;3.10;;;;;;;;;;4663254;30;20062;-66
2023/04/12 01:00:37;;;;;;;9.02;2.00;;;;;;;;;;4689856;30;20562;-66
2023/04/12 01:03:10;;;;;;;;;;;;;;;;;;4711959;30;20515;-65
2023/04/12 01:05:49;;;;;;;8.88;2.17;;;;;;;;;;4700166;30;19935;-66
2023/04/12 01:08:45;;;;;;;5.97;2.22;;;;;;;;;;4699907;30;20518;-66
2023/04/12 01:11:30;;;;;;;10.70;1.92;;;;;;;;;;4757422;30;20056;-65
2023/04/12 01:14:35;;;;;;;7.20;1.80;;;;;;;;;;4768125;30;20409;-65
2023/04/12 01:17:12;;;;;;;6.50;1.60;;;;;;;;;;4750760;30;20067;-66
2023/04/12 01:20:08;;;;;;;6.38;1.60;;;;;;;;;;4805452;29;20057;-65
2023/04/12 01:22:45;;;;;;;6.65;2.10;;;;;;;;;;4821931;29;20085;-65
2023/04/12 01:25:27;;;;;;;7.57;2.00;;;;;;;;;;4822339;29;20412;-65
2023/04/12 01:28:01;;;;;;;8.13;2.05;;;;;;;;;;4821895;29;20407;-66
2023/04/12 01:30:32;;;;;;;12.52;2.22;;;;;;;;;;4840474;29;20567;-66
2023/04/12 01:33:06;;;;;;;8.15;2.42;;;;;;;;;;4809835;29;20057;-65
2023/04/12 01:35:38;;;;;;;6.28;2.42;;;;;;;;;;4858609;29;20065;-66
2023/04/12 01:38:09;;;;;;;8.95;2.33;;;;;;;;;;4843623;29;20058;-66
2023/04/12 01:40:42;;;;;;;10.65;2.75;;;;;;;;;;4866543;29;20053;-66
2023/04/12 01:43:17;;;;;;;13.65;3.53;;;;;;;;;;4853557;29;20541;-65
2023/04/12 01:45:47;;;;;;;6.65;2.65;;;;;;;;;;4854111;29;20502;-66
2023/04/12 01:48:17;;;;;;;7.47;2.72;;;;;;;;;;4861363;29;20554;-65
2023/04/12 01:51:23;;;;;;;8.25;2.30;;;;;;;;;;4865805;29;20064;-65
2023/04/12 01:54:02;;;;;;;13.43;2.90;;;;;;;;;;4879390;29;20502;-66
2023/04/12 01:56:35;;;;;;;9.50;2.25;;;;;;;;;;4895704;29;20061;-65
2023/04/12 01:59:10;;;;;;;8.80;2.80;;;;;;;;;;4876403;29;20057;-65
2023/04/12 02:01:43;;;;;;;12.18;3.38;;;;;;;;;;4895150;29;20049;-65
2023/04/12 02:04:15;;;;;;;10.18;2.95;;;;;;;;;;4895843;29;20052;-66
2023/04/12 02:06:47;;;;;;;13.60;2.90;;;;;;;;;;4895239;29;20557;-66
2023/04/12 02:09:17;;;;;;;9.32;2.63;;;;;;;;;;4895511;29;20058;-66
2023/04/12 02:11:48;;;;;;;7.30;2.58;;;;;;;;;;4895688;29;20061;-65
2023/04/12 02:14:19;;;;;;;9.40;2.95;;;;;;;;;;4877870;29;20069;-65
2023/04/12 02:16:49;;;;;;;15.32;4.47;;;;;;;;;;4876632;29;20090;-65
2023/04/12 02:19:20;;;;;;;11.32;4.53;;;;;;;;;;4815004;29;20383;-65
2023/04/12 02:21:50;;;;;;;16.55;3.67;;;;;;;;;;4879406;29;20060;-65
2023/04/12 02:24:20;;;;;;;13.65;4.10;;;;;;;;;;4879650;29;20048;-65
2023/04/12 02:26:51;;;;;;;15.07;4.25;;;;;;;;;;4894596;29;20059;-65
2023/04/12 02:29:22;;;;;;;16.10;4.13;;;;;;;;;;4851077;29;20055;-65
2023/04/12 02:31:52;;;;;;;13.05;3.83;;;;;;;;;;4909559;28;20055;-65
2023/04/12 02:34:25;;;;;;;13.73;4.13;;;;;;;;;;4890878;29;20078;-65
2023/04/12 02:37:03;;;;;;;13.10;4.22;;;;;;;;;;4925873;28;20628;-65
2023/04/12 02:39:34;;;;;;;21.20;4.57;;;;;;;;;;4949689;28;20495;-65
2023/04/12 02:42:08;;;;;;;11.88;4.47;;;;;;;;;;4909042;28;20043;-65
2023/04/12 02:44:40;;;;;;;14.65;4.38;;;;;;;;;;4971074;28;20050;-65
2023/04/12 02:47:13;;;;;;;14.77;4.20;;;;;;;;;;4966659;28;20059;-65
2023/04/12 02:49:47;;;;;;;13.60;4.03;;;;;;;;;;4932152;29;20544;-65
2023/04/12 02:52:19;;;;;;;17.20;4.68;;;;;;;;;;4882296;29;20058;-66
2023/04/12 02:55:04;;;;;;;16.02;5.15;;;;;;;;;;4893613;29;20052;-66
2023/04/12 02:57:35;;;;;;;12.07;4.22;;;;;;;;;;4894384;29;20064;-65
2023/04/12 03:00:14;;;;;;;19.90;5.10;;;;;;;;;;4875336;29;20505;-65
2023/04/12 03:02:51;;;;;;;13.45;4.78;;;;;;;;;;4860424;29;20482;-65
2023/04/12 03:05:26;;;;;;;15.15;5.13;;;;;;;;;;4867309;29;20061;-65
2023/04/12 03:07:56;;;;;;;16.40;5.03;;;;;;;;;;4842663;29;20054;-65
2023/04/12 03:10:37;;;;;;;16.27;5.53;;;;;;;;;;4838434;29;20081;-65
2023/04/12 03:13:07;;;;;;;15.63;4.97;;;;;;;;;;4855485;29;20057;-65
2023/04/12 03:15:40;;;;;;;16.90;5.20;;;;;;;;;;4805228;29;20059;-65
2023/04/12 03:18:10;;;;;;;20.10;5.32;;;;;;;;;;4820097;29;20522;-65
2023/04/12 03:20:51;;;;;;;15.27;5.20;;;;;;;;;;4787507;29;20051;-65
2023/04/12 03:23:21;;;;;;;12.82;4.68;;;;;;;;;;4801705;29;20054;-64
2023/04/12 03:26:01;;;;;;;19.88;5.75;;;;;;;;;;4791389;29;20046;-65
2023/04/12 03:28:33;;;;;;;14.43;5.10;;;;;;;;;;4802963;29;20808;-65
2023/04/12 03:31:06;;;;;;;14.45;5.10;;;;;;;;;;4824433;29;20049;-65
2023/04/12 03:33:43;;;;;;;11.30;3.78;;;;;;;;;;4798450;29;20054;-66
2023/04/12 03:36:33;;;;;;;15.90;4.00;;;;;;;;;;4785202;29;20056;-65
2023/04/12 03:39:12;;;;;;;14.80;3.78;;;;;;;;;;4811391;29;20094;-65
2023/04/12 03:41:42;;;;;;;14.10;4.40;;;;;;;;;;4801564;29;20047;-65
2023/04/12 03:44:13;;;;;;;11.80;4.20;;;;;;;;;;4819661;29;20058;-65
2023/04/12 03:46:43;;;;;;;12.98;4.80;;;;;;;;;;4816531;29;20058;-65
2023/04/12 03:49:13;;;;;;;15.85;4.43;;;;;;;;;;4837709;29;20058;-65
2023/04/12 03:51:44;;;;;;;12.27;4.03;;;;;;;;;;4826338;29;20407;-65
2023/04/12 03:54:14;;;;;;;20.33;4.88;;;;;;;;;;4806138;29;20063;-65
2023/04/12 03:56:59;;;;;;;16.45;4.90;;;;;;;;;;4837697;29;20045;-65
2023/04/12 03:59:37;;;;;;;11.82;4.22;;;;;;;;;;4837407;29;20054;-65
2023/04/12 04:02:08;;;;;;;11.57;3.75;;;;;;;;;;4838288;29;20050;-65
2023/04/12 04:04:44;;;;;;;12.02;4.15;;;;;;;;;;4825328;29;20055;-65
2023/04/12 04:07:23;;;;;;;9.70;3.58;;;;;;;;;;4805428;29;20051;-65
2023/04/12 04:09:55;;;;;;;13.73;3.85;;;;;;;;;;4786774;30;20066;-65
2023/04/12 04:12:32;;;;;;;9.20;3.35;;;;;;;;;;4804902;29;20081;-65
2023/04/12 04:15:03;;;;;;;10.68;3.50;;;;;;;;;;4816583;29;20054;-65
2023/04/12 04:17:33;;;;;;;12.00;3.83;;;;;;;;;;4798616;29;20059;-65
2023/04/12 04:20:06;;;;;;;11.82;3.95;;;;;;;;;;4804696;29;20063;-65
2023/04/12 04:22:41;;;;;;;13.13;4.13;;;;;;;;;;4840717;29;20046;-65
2023/04/12 04:25:13;;;;;;;11.38;3.75;;;;;;;;;;4826337;29;20058;-65
2023/04/12 04:27:49;;;;;;;10.45;3.38;;;;;;;;;;4810030;29;20062;-65
2023/04/12 04:30:22;;;;;;;10.63;3.70;;;;;;;;;;4786718;30;20394;-65
2023/04/12 04:32:52;;;;;;;11.38;4.10;;;;;;;;;;4793967;29;20505;-65
2023/04/12 04:35:26;;;;;;;11.38;3.85;;;;;;;;;;4804525;29;20067;-65
2023/04/12 04:38:12;;;;;;;14.30;3.60;;;;;;;;;;4776044;30;20077;-65
2023/04/12 04:40:42;;;;;;;10.95;4.03;;;;;;;;;;4786186;30;20063;-65
2023/04/12 04:43:12;;;;;;;9.60;3.88;;;;;;;;;;4752794;30;20067;-65
2023/04/12 04:45:49;;;;;;;9.75;3.83;;;;;;;;;;4805545;29;20220;-64
2023/04/12 04:48:20;;;;;;;13.43;3.95;;;;;;;;;;4807062;29;20070;-65
2023/04/12 04:50:53;;;;;;;15.55;4.43;;;;;;;;;;4798945;29;20059;-65
2023/04/12 04:53:23;;;;;;;12.00;3.90;;;;;;;;;;4804172;29;20054;-65
2023/04/12 04:55:59;;;;;;;9.30;3.72;;;;;;;;;;4772665;29;20062;-65
2023/04/12 04:58:34;;;;;;;9.32;3.25;;;;;;;;;;4785976;29;20059;-65
2023/04/12 05:01:06;;;;;;;7.95;3.22;;;;;;;;;;4772769;29;20195;-65
2023/04/12 05:03:39;;;;;;;11.20;3.22;;;;;;;;;;4768094;30;20074;-65
2023/04/12 05:06:10;;;;;;;9.55;3.10;;;;;;;;;;4748598;30;20055;-65
2023/04/12 05:08:40;;;;;;;9.27;3.55;;;;;;;;;;4792781;29;20082;-65
2023/04/12 05:11:13;;;;;;;9.10;3.22;;;;;;;;;;4803847;29;20059;-65
2023/04/12 05:13:44;;;;;;;11.27;3.90;;;;;;;;;;4803829;29;20055;-65
2023/04/12 05:16:14;;;;;;;10.20;3.40;;;;;;;;;;4788382;29;20043;-65
2023/04/12 05:18:44;;;;;;;9.90;3.28;;;;;;;;;;4814229;29;20063;-65
2023/04/12 05:21:14;;;;;;;9.52;3.70;;;;;;;;;;4803692;29;20533;-65
2023/04/12 05:23:45;;;;;;;9.25;4.45;;;;;;;;;;4768343;30;20137;-65
2023/04/12 05:26:15;;;;;;;9.82;3.70;;;;;;;;;;4782953;30;20066;-65
2023/04/12 05:28:49;;;;;;;11.20;3.10;;;;;;;;;;4792950;29;20063;-65
2023/04/12 05:31:21;;;;;;;7.22;2.92;;;;;;;;;;4774788;30;20063;-65
2023/04/12 05:33:53;;;;;;;9.77;3.03;;;;;;;;;;4746118;30;20434;-65
2023/04/12 05:36:28;;;;;;;7.72;2.92;;;;;;;;;;4722096;30;20503;-65
2023/04/12 05:38:58;;;;;;;6.93;3.25;;;;;;;;;;4719560;30;20068;-65
2023/04/12 05:41:30;;;;;;;7.55;3.03;;;;;;;;;;4712030;30;20061;-65
2023/04/12 05:44:02;;;;;;;9.20;3.20;;;;;;;;;;4712900;30;20072;-65
2023/04/12 05:46:33;;;;;;;9.23;3.40;;;;;;;;;;4777568;30;20066;-65
2023/04/12 05:49:03;;;;;;;14.70;3.28;;;;;;;;;;4777232;30;20047;-65
2023/04/12 05:51:34;;;;;;;9.23;3.40;;;;;;;;;;4785529;30;20067;-65
2023/04/12 05:54:20;;;;;;;10.25;3.10;;;;;;;;;;4791746;29;20055;-65
2023/04/12 05:56:55;;;;;;;9.35;2.85;;;;;;;;;;4805742;29;20051;-65
2023/04/12 05:59:26;;;;;;;5.72;2.42;;;;;;;;;;4803283;29;20073;-65
2023/04/12 06:01:56;;;;;;;7.45;3.08;;;;;;;;;;4803107;29;20408;-65
2023/04/12 06:04:27;;;;;;;12.00;3.13;;;;;;;;;;4803297;29;20051;-65
2023/04/12 06:07:18;;;;;;;10.00;2.97;;;;;;;;;;4800114;29;20078;-65
2023/04/12 06:09:48;;;;;;;10.23;2.55;;;;;;;;;;4820962;29;20046;-65
2023/04/12 06:12:19;;;;;;;9.07;2.85;;;;;;;;;;4857318;29;20053;-65
2023/04/12 06:14:49;;;;;;;9.02;3.25;;;;;;;;;;4895259;29;20045;-65
2023/04/12 06:17:19;;;;;;;10.52;3.58;;;;;;;;;;4851174;29;20054;-65
2023/04/12 06:19:49;;;;;;;9.90;3.33;;;;;;;;;;4850057;29;20103;-65
2023/04/12 06:22:19;;;;;;;7.65;2.90;;;;;;;;;;4875850;29;20053;-65
2023/04/12 06:24:50;;;;;;;6.95;3.10;;;;;;;;;;4875844;29;20422;-66
2023/04/12 06:27:21;;;;;;;9.88;3.15;;;;;;;;;;4838710;29;20061;-65
2023/04/12 06:29:51;;;;;;;12.23;3.20;;;;;;;;;;4838899;29;20042;-65
2023/04/12 06:32:21;;;;;;;5.40;2.45;;;;;;;;;;4790447;29;20062;-65
2023/04/12 06:34:53;;;;;;;9.20;3.45;;;;;;;;;;4758758;30;20056;-65
2023/04/12 06:37:24;;;;;;;9.40;3.42;;;;;;;;;;4766608;30;20115;-65
2023/04/12 06:39:53;;;;;;;7.95;3.20;;;;;;;;;;4759751;30;20059;-65
2023/04/12 06:42:24;;;;;;;8.25;3.70;;;;;;;;;;4708131;30;20061;-65
2023/04/12 06:44:55;;;;;;;8.82;3.35;;;;;;;;;;4740620;30;20091;-65
2023/04/12 06:47:25;;;;;;;10.18;3.60;;;;;;;;;;4751806;30;20052;-65
2023/04/12 06:49:57;;;;;;;7.72;3.40;;;;;;;;;;4766544;30;20059;-65
2023/04/12 06:52:28;;;;;;;9.50;3.50;;;;;;;;;;4757320;30;20063;-65
2023/04/12 06:54:59;;;;;;;8.10;3.00;;;;;;;;;;4790832;29;20059;-65
2023/04/12 06:57:29;;;;;;;8.38;2.80;;;;;;;;;;4766554;30;20124;-65
2023/04/12 06:59:58;;;;;;;9.10;3.65;;;;;;;;;;4801308;29;20526;-64
2023/04/12 07:02:28;;;;;;;8.00;3.05;;;;;;;;;;4847949;29;20068;-64
2023/04/12 07:05:00;;;;;;;7.75;3.15;;;;;;;;;;4839413;29;20058;-64
2023/04/12 07:07:30;;;;;;;7.32;3.20;;;;;;;;;;4836642;29;20061;-64
2023/04/12 07:10:02;;;;;;;8.95;2.92;;;;;;;;;;4874724;29;20056;-64
2023/04/12 07:12:32;;;;;;;7.43;2.97;;;;;;;;;;4891040;29;20077;-64
2023/04/12 07:15:02;;;;;;;8.48;2.05;;;;;;;;;;4873656;29;20051;-64
2023/04/12 07:17:32;;;;;;;7.20;2.38;;;;;;;;;;4935903;29;20063;-65
2023/04/12 07:20:03;;;;;;;10.00;2.83;;;;;;;;;;4903635;29;20075;-65
2023/04/12 07:22:33;;;;;;;13.60;2.83;;;;;;;;;;4920306;29;20503;-65
2023/04/12 07:25:05;;;;;;;8.77;3.47;;;;;;;;;;4950954;29;20066;-65
2023/04/12 07:27:35;;;;;;;8.05;2.80;;;;;;;;;;4951358;29;20047;-64
2023/04/12 07:30:06;;;;;;;10.35;3.25;;;;;;;;;;4919034;29;20055;-64
2023/04/12 07:32:36;;;;;;;11.02;3.28;;;;;;;;;;4935597;29;20404;-64
2023/04/12 07:35:06;;;;;;;10.23;3.00;;;;;;;;;;4912538;29;20056;-64
2023/04/12 07:37:36;;;;;;;11.88;2.50;;;;;;;;;;4912985;29;20071;-64
2023/04/12 07:40:09;;;;;;;7.15;2.88;;;;;;;;;;4912310;29;20064;-65
2023/04/12 07:42:39;;;;;;;8.98;2.85;;;;;;;;;;4941716;28;20067;-65
2023/04/12 07:45:10;;;;;;;7.47;2.83;;;;;;;;;;4970218;28;20061;-64
2023/04/12 07:47:39;;;;;;;9.57;2.75;;;;;;;;;;4969906;28;20047;-64
2023/04/12 07:50:09;;;;;;;6.88;2.17;;;;;;;;;;4921484;28;20059;-65
2023/04/12 07:52:41;;;;;;;8.13;2.50;;;;;;;;;;4970272;28;20462;-65
2023/04/12 07:55:11;;;;;;;6.45;2.42;;;;;;;;;;4950591;28;20058;-65
2023/04/12 07:57:40;;;;;;;6.10;2.38;;;;;;;;;;4950726;28;20074;-65
2023/04/12 08:00:11;;;;;;;10.68;2.70;;;;;;;;;;4950484;28;20047;-65
2023/04/12 08:02:40;;;;;;;7.65;2.92;;;;;;;;;;4934931;29;20062;-65
2023/04/12 08:05:11;;;;;;;7.82;3.33;;;;;;;;;;4950610;29;20555;-65
2023/04/12 08:07:40;;;;;;;10.43;3.50;;;;;;;;;;4950687;29;20595;-65
2023/04/12 08:10:10;;;;;;;8.35;3.17;;;;;;;;;;4919518;29;20052;-64
2023/04/12 08:12:40;;;;;;;10.48;3.05;;;;;;;;;;4962974;28;20054;-65
2023/04/12 08:15:11;;;;;;;7.40;3.00;;;;;;;;;;4989296;28;20085;-65
2023/04/12 08:17:42;;;;;;;7.13;2.65;;;;;;;;;;4989421;28;20061;-65
2023/04/12 08:20:14;;;;;;;6.25;2.25;;;;;;;;;;4941118;28;20168;-65
2023/04/12 08:22:45;;;;;;;5.65;2.22;;;;;;;;;;4989063;28;20498;-65
2023/04/12 08:25:15;;;;;;;5.70;2.00;;;;;;;;;;4979870;28;20067;-65
2023/04/12 08:27:46;;;;;;;7.28;2.38;;;;;;;;;;4973144;28;20577;-65
2023/04/12 08:30:16;;;;;;;7.50;2.10;;;;;;;;;;4969564;28;20055;-65
2023/04/12 08:32:46;;;;;;;5.10;2.00;;;;;;;;;;4977482;28;20069;-65
2023/04/12 08:35:16;;;;;;;4.40;2.10;;;;;;;;;;4989146;28;20062;-65
2023/04/12 08:37:46;;;;;;;6.15;2.33;;;;;;;;;;4989354;28;20057;-65
2023/04/12 08:40:16;;;;;;;7.60;2.10;;;;;;;;;;4989124;28;20494;-65
2023/04/12 08:42:46;;;;;;;4.22;1.88;;;;;;;;;;4989083;28;20507;-66
2023/04/12 08:45:16;;;;;;;4.75;2.25;;;;;;;;;;4989222;28;20434;-65
2023/04/12 08:47:46;;;;;;;6.32;2.20;;;;;;;;;;4969490;28;20061;-65
2023/04/12 08:50:16;;;;;;;5.50;2.38;;;;;;;;;;4981073;28;20046;-65
2023/04/12 08:52:48;;;;;;;7.57;3.08;;;;;;;;;;4959414;28;20166;-65
2023/04/12 08:55:18;;;;;;;7.65;3.03;;;;;;;;;;4992842;28;20546;-65
2023/04/12 08:57:49;;;;;;;8.00;3.20;;;;;;;;;;4992384;28;20506;-65
2023/04/12 09:00:20;;;;;;;6.30;2.67;;;;;;;;;;4992493;28;20065;-65
2023/04/12 09:02:52;;;;;;;8.45;3.10;;;;;;;;;;4992701;28;20422;-65
2023/04/12 09:05:28;;;;;;;6.40;3.17;;;;;;;;;;4976026;28;20498;-65
2023/04/12 09:07:59;;;;;;;9.02;3.00;;;;;;;;;;4979504;28;20065;-65
2023/04/12 09:10:35;;;;;;;15.43;3.83;;;;;;;;;;4972692;28;20058;-65
2023/04/12 09:13:05;;;;;;;7.38;3.15;;;;;;;;;;4992378;28;20415;-65
2023/04/12 09:15:35;;;;;;;12.15;3.22;;;;;;;;;;4956346;28;20783;-65
2023/04/12 09:18:07;;;;;;;7.65;3.72;;;;;;;;;;4972793;28;20384;-65
2023/04/12 09:20:39;;;;;;;6.65;2.55;;;;;;;;;;4972830;28;20508;-65
2023/04/12 09:23:27;;;;;;;10.38;3.72;;;;;;;;;;4972669;28;20098;-65
2023/04/12 09:25:57;;;;;;;10.40;3.50;;;;;;;;;;4972625;28;20050;-64
2023/04/12 09:28:28;;;;;;;7.13;3.55;;;;;;;;;;4956328;28;20046;-65
2023/04/12 09:30:59;;;;;;;8.98;3.47;;;;;;;;;;4952884;29;20047;-65
2023/04/12 09:33:35;;;;;;;6.93;2.90;;;;;;;;;;4953040;29;20063;-64
2023/04/12 09:36:13;;;;;;;6.60;2.90;;;;;;;;;;4921308;29;20523;-63
2023/04/12 09:38:59;;;;;;;8.98;3.28;;;;;;;;;;4905754;29;20058;-63
2023/04/12 09:41:30;;;;;;;7.78;3.70;;;;;;;;;;4917720;29;20059;-64
2023/04/12 09:44:00;;;;;;;9.40;3.97;;;;;;;;;;4903875;29;20055;-64
2023/04/12 09:46:30;;;;;;;9.40;3.78;;;;;;;;;;4905259;29;20058;-63
2023/04/12 09:49:02;;;;;;;8.82;3.80;;;;;;;;;;4935512;28;20063;-64
2023/04/12 09:51:36;;;;;;;10.35;4.40;;;;;;;;;;4971934;28;20051;-64
2023/04/12 09:54:09;;;;;;;11.18;3.70;;;;;;;;;;4971374;28;20061;-64
2023/04/12 09:56:41;;;;;;;12.02;3.80;;;;;;;;;;4975320;28;20469;-63
2023/04/12 09:59:12;;;;;;;7.88;2.88;;;;;;;;;;4982194;28;20055;-64
2023/04/12 10:01:42;;;;;;;8.95;3.10;;;;;;;;;;4971784;28;20046;-63
2023/04/12 10:04:12;;;;;;;7.53;2.83;;;;;;;;;;4955374;28;20520;-63
2023/04/12 10:06:44;;;;;;;6.47;2.65;;;;;;;;;;4955541;28;20054;-63
2023/04/12 10:09:14;;;;;;;13.05;3.05;;;;;;;;;;4988214;28;20058;-63
2023/04/12 10:11:46;;;;;;;7.05;2.60;;;;;;;;;;4959047;28;20065;-63
2023/04/12 10:14:18;;;;;;;7.35;2.53;;;;;;;;;;4958797;28;20073;-63
2023/04/12 10:16:48;;;;;;;;;;;;;;;;;;4993951;28;20038;-64
2023/04/12 10:19:18;;;;;;;8.88;2.38;;;;;;;;;;4975145;28;19922;-64
2023/04/12 10:21:49;;;;;;;9.20;2.70;;;;;;;;;;4976520;28;20119;-64
2023/04/12 10:24:23;;;;;;;9.38;3.63;;;;;;;;;;4959364;28;20046;-63
2023/04/12 10:26:57;;;;;;;13.05;4.45;;;;;;;;;;4993212;28;20043;-63
2023/04/12 10:29:36;;;;;;;12.10;4.85;;;;;;;;;;4993314;28;20387;-63
2023/04/12 10:32:23;;;;;;;12.15;3.97;;;;;;;;;;4975132;28;20061;-64
2023/04/12 10:34:59;;;;;;;7.32;3.33;;;;;;;;;;4970922;28;20065;-63
2023/04/12 10:38:01;;;;;;;8.77;4.13;;;;;;;;;;4971043;28;20074;-63
2023/04/12 10:40:34;;;;;;;9.40;3.88;;;;;;;;;;4913794;29;20068;-63
2023/04/12 10:43:22;;;;;;;14.00;4.50;;;;;;;;;;4913667;29;20083;-64
2023/04/12 10:45:52;;;;;;;9.40;3.67;;;;;;;;;;4913820;29;20063;-64
2023/04/12 10:48:33;;;;;;;13.23;3.75;;;;;;;;;;4913614;29;20060;-64
2023/04/12 10:51:24;;;;;;;10.50;3.88;;;;;;;;;;4875766;29;20056;-64
2023/04/12 10:54:15;;;;;;;8.40;3.30;;;;;;;;;;4838776;29;20058;-64
2023/04/12 10:56:46;;;;;;;8.35;3.33;;;;;;;;;;4808330;29;20058;-64
2023/04/12 10:59:23;;;;;;;8.27;3.53;;;;;;;;;;4820566;29;20451;-64
2023/04/12 11:02:10;;;;;;;12.57;4.47;;;;;;;;;;4806752;29;20065;-64
2023/04/12 11:05:04;;;;;;;14.63;3.85;;;;;;;;;;4820633;29;20058;-64
2023/04/12 11:07:53;;;;;;;9.45;3.83;;;;;;;;;;4821777;29;20050;-64
2023/04/12 11:10:45;;;;;;;11.88;3.63;;;;;;;;;;4784072;29;20055;-63
2023/04/12 11:13:21;;;;;;;9.35;3.25;;;;;;;;;;4784127;29;20059;-64
2023/04/12 11:16:05;;;;;;;8.02;3.20;;;;;;;;;;4785636;29;20066;-64
2023/04/12 11:18:35;;;;;;;9.50;2.70;;;;;;;;;;4802079;29;20067;-63
2023/04/12 11:21:05;;;;;;;11.18;2.67;;;;;;;;;;4802376;29;20054;-64
2023/04/12 11:23:38;;;;;;;5.15;2.53;;;;;;;;;;4772227;29;20544;-64
2023/04/12 11:26:09;;;;;;;11.77;3.08;;;;;;;;;;4817271;29;20070;-64
2023/04/12 11:28:39;;;;;;;5.80;3.13;;;;;;;;;;4786286;29;20096;-63
2023/04/12 11:31:11;;;;;;;6.78;2.85;;;;;;;;;;4830702;29;20057;-64
2023/04/12 11:33:41;;;;;;;6.88;2.58;;;;;;;;;;4867610;29;20069;-64
2023/04/12 11:36:12;;;;;;;6.95;2.58;;;;;;;;;;4859001;29;20060;-64
2023/04/12 11:38:44;;;;;;;11.55;3.13;;;;;;;;;;4830738;29;20060;-64
2023/04/12 11:41:15;;;;;;;8.18;2.60;;;;;;;;;;4883764;29;20072;-64
2023/04/12 11:43:46;;;;;;;12.05;2.78;;;;;;;;;;4869411;29;20049;-64
2023/04/12 11:46:17;;;;;;;7.93;3.20;;;;;;;;;;4899860;29;20063;-64
2023/04/12 11:48:47;;;;;;;7.55;3.10;;;;;;;;;;4923067;29;20039;-64
2023/04/12 11:51:26;;;;;;;8.77;4.18;;;;;;;;;;4974035;28;20395;-64
2023/04/12 11:54:00;;;;;;;13.35;3.78;;;;;;;;;;4989355;28;20054;-64
2023/04/12 11:56:31;;;;;;;9.65;3.35;;;;;;;;;;4938459;28;20051;-64
2023/04/12 11:59:01;;;;;;;7.90;4.15;;;;;;;;;;4971131;28;20519;-64
2023/04/12 12:01:31;;;;;;;17.48;4.22;;;;;;;;;;4989555;28;20054;-64
2023/04/12 12:04:01;;;;;;;9.38;4.15;;;;;;;;;;4957679;28;20237;-64
2023/04/12 12:06:32;;;;;;;8.68;4.78;;;;;;;;;;4989420;28;20054;-64
2023/04/12 12:09:03;;;;;;;9.40;4.00;;;;;;;;;;4973762;28;20058;-64
2023/04/12 12:11:32;;;;;;;7.13;3.10;;;;;;;;;;4973360;28;20058;-64
2023/04/12 12:14:06;;;;;;;7.95;3.40;;;;;;;;;;4941925;28;20482;-63
2023/04/12 12:16:37;;;;;;;7.78;3.00;;;;;;;;;;4962849;28;20061;-63
2023/04/12 12:19:07;;;;;;;11.20;3.15;;;;;;;;;;5030115;28;20072;-65
2023/04/12 12:21:37;;;;;;;9.25;2.40;;;;;;;;;;4996456;28;20046;-63
2023/04/12 12:24:13;;;;;;;7.93;2.70;;;;;;;;;;5030374;28;20045;-63
2023/04/12 12:26:43;;;;;;;5.47;2.30;;;;;;;;;;5014413;28;20497;-63
2023/04/12 12:29:18;;;;;;;9.50;2.63;;;;;;;;;;5035023;28;20045;-63
2023/04/12 12:31:48;;;;;;;7.32;2.13;;;;;;;;;;5034739;28;20042;-63
2023/04/12 12:34:18;;;;;;;9.25;3.20;;;;;;;;;;4999633;28;20508;-63
2023/04/12 12:36:55;;;;;;;6.65;2.42;;;;;;;;;;5034115;28;20050;-63
2023/04/12 12:39:25;;;;;;;15.30;2.47;;;;;;;;;;5016008;28;20057;-62
2023/04/12 12:41:56;;;;;;;5.90;2.92;;;;;;;;;;4999690;28;20053;-63
2023/04/12 12:44:25;;;;;;;9.82;2.60;;;;;;;;;;4998581;28;20547;-63
2023/04/12 12:47:00;;;;;;;5.97;2.50;;;;;;;;;;5021416;28;20041;-63
2023/04/12 12:49:41;;;;;;;6.18;2.40;;;;;;;;;;5030691;28;20034;-63
2023/04/12 12:52:11;;;;;;;6.70;2.28;;;;;;;;;;5012883;28;20053;-63
2023/04/12 12:54:43;;;;;;;8.82;2.47;;;;;;;;;;5033472;28;20696;-64
2023/04/12 12:57:14;;;;;;;11.63;3.03;;;;;;;;;;4983096;28;20042;-63
2023/04/12 12:59:44;;;;;;;6.07;2.35;;;;;;;;;;5031121;28;20053;-63
2023/04/12 13:02:16;;;;;;;6.72;2.55;;;;;;;;;;5034183;28;20048;-65
2023/04/12 13:04:47;;;;;;;5.63;2.20;;;;;;;;;;5030882;28;20045;-63
2023/04/12 13:07:17;;;;;;;6.13;2.47;;;;;;;;;;5015662;28;20056;-63
2023/04/12 13:09:46;;;;;;;7.75;2.47;;;;;;;;;;5015519;28;20057;-63
2023/04/12 13:12:16;;;;;;;5.72;2.08;;;;;;;;;;5034089;28;20045;-63
2023/04/12 13:14:46;;;;;;;4.43;2.20;;;;;;;;;;5033780;28;20041;-64
2023/04/12 13:17:16;;;;;;;7.18;2.30;;;;;;;;;;4998998;28;20068;-64
2023/04/12 13:19:46;;;;;;;8.15;2.70;;;;;;;;;;4982365;28;20065;-63
2023/04/12 13:22:16;;;;;;;5.88;1.90;;;;;;;;;;5014927;28;20406;-64
2023/04/12 13:24:46;;;;;;;6.30;2.08;;;;;;;;;;4998842;28;20049;-64
2023/04/12 13:27:16;;;;;;;4.43;1.83;;;;;;;;;;4982365;28;20057;-64
2023/04/12 13:29:46;;;;;;;4.85;1.60;;;;;;;;;;5033533;28;20037;-64
2023/04/12 13:32:17;;;;;;;4.07;2.20;;;;;;;;;;5033445;28;20056;-64
2023/04/12 13:34:47;;;;;;;3.08;1.58;;;;;;;;;;5023797;28;20052;-64
2023/04/12 13:37:17;;;;;;;5.75;1.77;;;;;;;;;;5033125;28;20482;-64
2023/04/12 13:39:46;;;;;;;13.95;5.90;;;;;;;;;;4994466;28;20429;-64
2023/04/12 13:42:16;;;;;;;11.63;5.97;;;;;;;;;;4990721;28;20063;-64
2023/04/12 13:44:47;;;;;;;15.93;6.75;;;;;;;;;;4982398;28;20049;-64
2023/04/12 13:47:17;;;;;;;6.03;2.13;;;;;;;;;;5033723;28;20049;-64
2023/04/12 13:49:47;;;;;;;4.07;1.70;;;;;;;;;;5016358;28;20045;-64
2023/04/12 13:52:17;;;;;;;7.50;3.50;;;;;;;;;;5014675;28;20064;-64
2023/04/12 13:54:47;;;;;;;4.15;2.38;;;;;;;;;;5033038;28;20041;-64
2023/04/12 13:57:17;;;;;;;5.80;2.75;;;;;;;;;;5014051;28;20049;-64
2023/04/12 13:59:48;;;;;;;3.95;2.40;;;;;;;;;;5032577;28;20057;-65
2023/04/12 14:02:17;;;;;;;4.13;1.40;;;;;;;;;;4997262;28;20056;-64
2023/04/12 14:04:52;;;;;;;8.23;1.17;;;;;;;;;;4980278;28;20052;-64
2023/04/12 14:07:24;;;;;;;2.95;1.50;;;;;;;;;;5032554;28;20041;-64
2023/04/12 14:09:54;;;;;;;5.60;1.98;;;;;;;;;;5032614;28;20037;-64
2023/04/12 14:12:25;;;;;;;2.83;1.40;;;;;;;;;;4982798;28;20046;-64
2023/04/12 14:14:54;;;;;;;3.05;1.30;;;;;;;;;;5032838;28;20057;-63
2023/04/12 14:17:24;;;;;;;2.85;1.30;;;;;;;;;;4997146;28;20060;-64
2023/04/12 14:19:55;;;;;;;8.60;2.85;;;;;;;;;;5032988;28;20045;-64
2023/04/12 14:22:24;;;;;;;3.50;1.30;;;;;;;;;;5032145;28;20041;-63
2023/04/12 14:24:54;;;;;;;4.35;2.03;;;;;;;;;;5014149;28;20057;-64
2023/04/12 14:27:24;;;;;;;6.25;1.25;;;;;;;;;;4998066;28;20065;-64
2023/04/12 14:29:55;;;;;;;3.30;1.23;;;;;;;;;;5032568;28;20042;-63
2023/04/12 14:32:25;;;;;;;1.95;1.10;;;;;;;;;;5032878;28;20052;-63
2023/04/12 14:34:55;;;;;;;4.15;1.27;;;;;;;;;;5032275;28;20045;-63
2023/04/12 14:37:25;;;;;;;2.40;1.13;;;;;;;;;;4996705;28;20072;-63
2023/04/12 14:39:55;;;;;;;6.00;1.13;;;;;;;;;;5009356;28;20060;-64
2023/04/12 14:42:26;;;;;;;4.55;1.08;;;;;;;;;;4991475;28;20427;-64
2023/04/12 14:44:56;;;;;;;5.78;1.20;;;;;;;;;;4978301;28;20061;-64
2023/04/12 14:47:26;;;;;;;3.97;1.10;;;;;;;;;;4976730;28;20065;-65
2023/04/12 14:49:56;;;;;;;1.80;0.70;;;;;;;;;;4990921;28;20064;-64
2023/04/12 14:52:26;;;;;;;4.40;1.30;;;;;;;;;;5010003;28;20406;-64
2023/04/12 14:54:56;;;;;;;2.63;0.50;;;;;;;;;;5010188;28;20066;-64
2023/04/12 14:57:50;;;;;;;4.47;0.80;;;;;;;;;;4976855;28;20540;-65
2023/04/12 15:00:20;;;;;;;0.63;0.32;;;;;;;;;;4993733;28;20489;-65
2023/04/12 15:03:29;;;;;;;1.15;0.40;;;;;;;;;;4919155;29;20047;-64
2023/04/12 15:14:30;;;;;;;0.80;0.38;;;;;;;;;;4933013;29;20044;-64
2023/04/12 15:17:32;;;;;;;0.77;0.50;;;;;;;;;;4932426;29;20496;-64
2023/04/12 15:30:09;;;;;;;1.73;0.50;;;;;;;;;;4875395;29;20041;-65
2023/04/12 15:32:40;;;;;;;0.40;0.30;;;;;;;;;;4823218;29;20128;-65
2023/04/12 15:35:10;;;;;;;2.67;0.40;;;;;;;;;;4874273;29;20461;-65
2023/04/12 15:37:43;;;;;;;2.00;0.40;;;;;;;;;;4904808;29;20041;-64